Time;durP1;ratioP1;P1;durP2;ratioP2;P2;SDS_P1;SDS_P2;PMS_P1;PMS_P2;Temp;Humidity;BMP_temperature;BMP_pressure;BME280_temperature;BME280_humidity;BME280_pressure;Samples;Min_cycle;Max_cycle;Signal;HPM_P1;HPM_P2
2023/04/04 00:00:43;;;;;;;6.00;2.17;;;;;;;;;;4971588;28;20582;-66
2023/04/04 00:03:09;;;;;;;8.30;2.30;;;;;;;;;;4970930;28;20357;-65
2023/04/04 00:05:34;;;;;;;5.83;2.13;;;;;;;;;;4970850;28;20746;-66
2023/04/04 00:08:00;;;;;;;4.33;2.10;;;;;;;;;;4971452;28;20591;-66
2023/04/04 00:10:26;;;;;;;5.27;2.40;;;;;;;;;;4971128;28;20222;-66
2023/04/04 00:12:51;;;;;;;7.77;2.70;;;;;;;;;;4961812;28;20213;-66
2023/04/04 00:15:17;;;;;;;6.17;2.60;;;;;;;;;;4942848;28;20219;-66
2023/04/04 00:17:42;;;;;;;5.67;2.47;;;;;;;;;;4943223;28;21348;-66
2023/04/04 00:20:08;;;;;;;4.90;2.10;;;;;;;;;;4941741;28;20254;-66
2023/04/04 00:22:33;;;;;;;5.47;2.47;;;;;;;;;;4942612;28;20224;-66
2023/04/04 00:24:58;;;;;;;6.45;2.67;;;;;;;;;;4942331;28;20236;-66
2023/04/04 00:27:24;;;;;;;5.53;2.80;;;;;;;;;;4935475;28;20225;-66
2023/04/04 00:29:49;;;;;;;3.90;2.30;;;;;;;;;;4935396;28;20955;-66
2023/04/04 00:32:15;;;;;;;6.20;2.63;;;;;;;;;;4934425;28;20227;-66
2023/04/04 00:34:40;;;;;;;5.97;2.53;;;;;;;;;;4941483;28;20639;-66
2023/04/04 00:37:06;;;;;;;6.87;2.70;;;;;;;;;;4941914;28;20273;-65
2023/04/04 00:39:32;;;;;;;7.13;2.50;;;;;;;;;;4942263;28;20227;-66
2023/04/04 00:41:57;;;;;;;7.47;2.47;;;;;;;;;;4960306;28;20640;-66
2023/04/04 00:44:22;;;;;;;6.00;2.83;;;;;;;;;;4943502;28;20210;-65
2023/04/04 00:46:48;;;;;;;6.90;2.60;;;;;;;;;;4956826;28;20228;-65
2023/04/04 00:49:13;;;;;;;7.07;2.77;;;;;;;;;;4937302;28;20222;-66
2023/04/04 00:51:38;;;;;;;6.87;2.57;;;;;;;;;;4934976;28;20298;-66
2023/04/04 00:54:03;;;;;;;7.23;3.03;;;;;;;;;;4952149;28;20872;-65
2023/04/04 00:56:29;;;;;;;8.10;2.80;;;;;;;;;;4940727;28;20221;-66
2023/04/04 00:58:55;;;;;;;6.03;2.67;;;;;;;;;;4943522;28;20221;-66
2023/04/04 01:01:21;;;;;;;7.30;2.87;;;;;;;;;;4959645;28;20221;-66
2023/04/04 01:03:46;;;;;;;6.07;2.77;;;;;;;;;;4943368;28;20256;-66
2023/04/04 01:06:11;;;;;;;5.37;2.80;;;;;;;;;;4960513;28;20253;-65
2023/04/04 01:08:37;;;;;;;6.87;2.83;;;;;;;;;;4942462;28;20756;-66
2023/04/04 01:11:02;;;;;;;7.83;3.00;;;;;;;;;;4958333;28;20226;-65
2023/04/04 01:13:28;;;;;;;7.23;2.90;;;;;;;;;;4953873;28;20304;-66
2023/04/04 01:15:53;;;;;;;6.00;2.90;;;;;;;;;;4953005;28;20298;-66
2023/04/04 01:18:19;;;;;;;7.03;2.93;;;;;;;;;;4955377;28;20273;-65
2023/04/04 01:20:52;;;;;;;7.20;3.00;;;;;;;;;;4958931;28;20337;-66
2023/04/04 01:23:17;;;;;;;6.17;3.17;;;;;;;;;;4942372;28;20284;-66
2023/04/04 01:25:42;;;;;;;6.47;3.70;;;;;;;;;;4947255;28;20677;-66
2023/04/04 01:28:08;;;;;;;7.53;3.13;;;;;;;;;;4941105;28;20247;-65
2023/04/04 01:30:34;;;;;;;7.33;3.27;;;;;;;;;;4941371;28;20229;-66
2023/04/04 01:33:02;;;;;;;6.97;3.37;;;;;;;;;;4943311;28;20361;-66
2023/04/04 01:35:34;;;;;;;6.70;3.07;;;;;;;;;;4935792;28;20244;-66
2023/04/04 01:37:59;;;;;;;8.43;3.23;;;;;;;;;;4934528;28;20280;-66
2023/04/04 01:40:27;;;;;;;6.03;2.87;;;;;;;;;;4934169;28;20222;-66
2023/04/04 01:42:52;;;;;;;5.33;3.10;;;;;;;;;;4943241;28;21136;-66
2023/04/04 01:45:17;;;;;;;5.63;2.83;;;;;;;;;;4959419;28;20225;-65
2023/04/04 01:47:42;;;;;;;7.27;3.20;;;;;;;;;;4934086;28;20253;-66
2023/04/04 01:50:08;;;;;;;10.60;3.60;;;;;;;;;;4940637;28;20223;-65
2023/04/04 01:52:34;;;;;;;8.43;3.40;;;;;;;;;;4941404;28;20647;-66
2023/04/04 01:54:59;;;;;;;6.97;3.10;;;;;;;;;;4941636;28;20222;-66
2023/04/04 01:57:25;;;;;;;6.70;3.00;;;;;;;;;;4935458;28;20284;-66
2023/04/04 01:59:50;;;;;;;6.40;3.03;;;;;;;;;;4934574;28;20877;-66
2023/04/04 02:02:15;;;;;;;8.83;3.30;;;;;;;;;;4933327;28;20226;-66
2023/04/04 02:04:41;;;;;;;5.77;2.77;;;;;;;;;;4941087;28;20230;-66
2023/04/04 02:07:07;;;;;;;6.37;2.80;;;;;;;;;;4944217;28;20265;-65
2023/04/04 02:09:32;;;;;;;6.53;2.80;;;;;;;;;;4945498;28;20752;-66
2023/04/04 02:11:57;;;;;;;7.17;3.10;;;;;;;;;;4962804;28;20210;-66
2023/04/04 02:14:22;;;;;;;6.97;3.20;;;;;;;;;;4963612;28;20206;-66
2023/04/04 02:16:48;;;;;;;7.27;3.17;;;;;;;;;;4963754;28;21000;-66
2023/04/04 02:19:14;;;;;;;6.83;2.90;;;;;;;;;;4959248;28;20209;-66
2023/04/04 02:21:39;;;;;;;11.40;3.40;;;;;;;;;;4947871;28;20214;-66
2023/04/04 02:24:04;;;;;;;6.73;3.50;;;;;;;;;;4936936;28;20210;-66
2023/04/04 02:26:30;;;;;;;7.20;3.10;;;;;;;;;;4939715;28;20305;-66
2023/04/04 02:28:55;;;;;;;7.30;3.60;;;;;;;;;;4944590;28;20234;-66
2023/04/04 02:31:21;;;;;;;6.57;3.67;;;;;;;;;;4943722;28;20602;-65
2023/04/04 02:33:46;;;;;;;8.27;3.50;;;;;;;;;;4944169;28;20233;-66
2023/04/04 02:36:12;;;;;;;5.93;3.13;;;;;;;;;;4943915;28;21077;-66
2023/04/04 02:38:37;;;;;;;7.67;3.53;;;;;;;;;;4962594;28;20214;-66
2023/04/04 02:41:03;;;;;;;6.30;3.60;;;;;;;;;;4961611;28;20249;-65
2023/04/04 02:43:28;;;;;;;6.63;3.50;;;;;;;;;;4956633;28;20210;-66
2023/04/04 02:45:53;;;;;;;7.83;3.13;;;;;;;;;;4956132;28;20217;-66
2023/04/04 02:48:19;;;;;;;6.97;3.70;;;;;;;;;;4941545;28;20234;-66
2023/04/04 02:50:45;;;;;;;7.23;3.47;;;;;;;;;;4944055;28;20250;-66
2023/04/04 02:53:10;;;;;;;7.20;3.40;;;;;;;;;;4943682;28;20313;-65
2023/04/04 02:55:35;;;;;;;7.23;3.40;;;;;;;;;;4943806;28;20222;-66
2023/04/04 02:58:00;;;;;;;5.53;3.07;;;;;;;;;;4943947;28;20321;-62
2023/04/04 03:00:26;;;;;;;7.40;3.10;;;;;;;;;;4943411;28;20230;-65
2023/04/04 03:02:53;;;;;;;5.90;2.90;;;;;;;;;;4944380;28;20716;-66
2023/04/04 03:05:18;;;;;;;5.60;3.10;;;;;;;;;;4957255;28;20224;-65
2023/04/04 03:07:43;;;;;;;7.07;3.23;;;;;;;;;;4957531;28;20233;-66
2023/04/04 03:10:09;;;;;;;6.87;2.93;;;;;;;;;;4961712;28;20251;-65
2023/04/04 03:12:34;;;;;;;4.83;2.90;;;;;;;;;;4953164;29;20219;-66
2023/04/04 03:14:59;;;;;;;8.67;3.10;;;;;;;;;;4952194;28;20586;-66
2023/04/04 03:17:24;;;;;;;7.30;3.23;;;;;;;;;;4952690;29;20216;-66
2023/04/04 03:19:50;;;;;;;6.00;2.87;;;;;;;;;;4953182;29;20281;-66
2023/04/04 03:22:15;;;;;;;7.00;3.30;;;;;;;;;;4965359;28;20852;-65
2023/04/04 03:24:40;;;;;;;6.50;2.93;;;;;;;;;;4968985;28;20210;-65
2023/04/04 03:27:06;;;;;;;6.47;3.63;;;;;;;;;;4952271;29;20582;-65
2023/04/04 03:29:31;;;;;;;5.67;3.17;;;;;;;;;;4953816;28;20254;-65
2023/04/04 03:31:57;;;;;;;7.63;3.30;;;;;;;;;;4972105;28;20723;-65
2023/04/04 03:34:23;;;;;;;5.50;2.90;;;;;;;;;;4971358;28;20245;-66
2023/04/04 03:36:49;;;;;;;8.97;3.07;;;;;;;;;;4971576;28;20224;-66
2023/04/04 03:39:14;;;;;;;5.27;3.07;;;;;;;;;;4971543;28;20217;-66
2023/04/04 03:41:39;;;;;;;9.20;3.37;;;;;;;;;;4971884;28;20350;-66
2023/04/04 03:44:05;;;;;;;7.27;3.23;;;;;;;;;;4971006;28;20305;-65
2023/04/04 03:46:30;;;;;;;7.70;3.50;;;;;;;;;;4972040;28;20246;-66
2023/04/04 03:48:55;;;;;;;7.60;3.03;;;;;;;;;;4965987;28;20229;-66
2023/04/04 03:51:23;;;;;;;6.27;3.13;;;;;;;;;;4955410;28;20222;-65
2023/04/04 03:53:48;;;;;;;8.10;3.53;;;;;;;;;;4971750;28;20222;-66
2023/04/04 03:56:13;;;;;;;5.07;3.10;;;;;;;;;;4971106;28;20225;-65
2023/04/04 03:58:38;;;;;;;7.40;3.20;;;;;;;;;;4971190;28;20241;-66
2023/04/04 04:01:04;;;;;;;6.10;3.20;;;;;;;;;;4971414;28;20577;-65
2023/04/04 04:03:30;;;;;;;6.43;3.30;;;;;;;;;;4939034;28;20260;-66
2023/04/04 04:05:55;;;;;;;7.17;3.00;;;;;;;;;;4939867;28;20214;-66
2023/04/04 04:08:20;;;;;;;5.50;3.20;;;;;;;;;;4942177;28;20333;-65
2023/04/04 04:10:46;;;;;;;6.27;3.30;;;;;;;;;;4941885;28;20293;-65
2023/04/04 04:13:11;;;;;;;6.97;3.00;;;;;;;;;;4942458;28;20217;-65
2023/04/04 04:15:36;;;;;;;6.23;2.63;;;;;;;;;;4942729;28;20240;-66
2023/04/04 04:18:02;;;;;;;8.07;3.27;;;;;;;;;;4941971;28;21206;-65
2023/04/04 04:20:27;;;;;;;6.17;3.13;;;;;;;;;;4940092;28;20218;-66
2023/04/04 04:22:52;;;;;;;5.53;2.90;;;;;;;;;;4936000;28;20246;-66
2023/04/04 04:25:18;;;;;;;6.07;3.00;;;;;;;;;;4934295;28;20800;-66
2023/04/04 04:27:44;;;;;;;8.17;3.30;;;;;;;;;;4936437;28;20550;-66
2023/04/04 04:30:09;;;;;;;6.93;3.10;;;;;;;;;;4942123;28;20801;-65
2023/04/04 04:32:34;;;;;;;6.60;2.87;;;;;;;;;;4941580;28;20231;-66
2023/04/04 04:35:00;;;;;;;7.73;2.97;;;;;;;;;;4942405;28;20228;-66
2023/04/04 04:37:26;;;;;;;7.83;3.50;;;;;;;;;;4941428;28;20241;-65
2023/04/04 04:39:51;;;;;;;6.53;3.17;;;;;;;;;;4942023;28;20305;-66
2023/04/04 04:42:17;;;;;;;7.60;3.47;;;;;;;;;;4954687;28;20365;-65
2023/04/04 04:44:42;;;;;;;6.57;3.37;;;;;;;;;;4935721;28;20707;-66
2023/04/04 04:47:07;;;;;;;6.97;3.00;;;;;;;;;;4962369;28;20245;-65
2023/04/04 04:49:33;;;;;;;6.53;2.97;;;;;;;;;;4953202;28;20694;-66
2023/04/04 04:51:59;;;;;;;8.60;3.20;;;;;;;;;;4959070;28;20692;-65
2023/04/04 04:54:24;;;;;;;6.17;3.00;;;;;;;;;;4966794;28;20218;-62
2023/04/04 04:56:49;;;;;;;7.68;3.83;;;;;;;;;;4970209;28;20430;-62
2023/04/04 04:59:15;;;;;;;7.43;3.27;;;;;;;;;;4970107;28;20229;-63
2023/04/04 05:01:40;;;;;;;8.53;3.27;;;;;;;;;;4969256;28;20465;-64
2023/04/04 05:04:05;;;;;;;7.13;3.30;;;;;;;;;;4963360;28;20211;-63
2023/04/04 05:06:30;;;;;;;7.90;3.03;;;;;;;;;;4960425;28;20296;-63
2023/04/04 05:08:56;;;;;;;5.33;2.80;;;;;;;;;;4960633;28;20757;-63
2023/04/04 05:11:21;;;;;;;6.87;3.17;;;;;;;;;;4959067;28;20245;-63
2023/04/04 05:13:47;;;;;;;7.50;3.40;;;;;;;;;;4961319;28;20213;-63
2023/04/04 05:16:12;;;;;;;5.97;3.07;;;;;;;;;;4959555;28;20731;-62
2023/04/04 05:18:38;;;;;;;6.77;3.00;;;;;;;;;;4959954;28;20309;-63
2023/04/04 05:21:03;;;;;;;7.00;2.93;;;;;;;;;;4959661;28;20245;-62
2023/04/04 05:23:28;;;;;;;6.63;3.20;;;;;;;;;;4959710;28;20221;-63
2023/04/04 05:25:53;;;;;;;6.90;3.10;;;;;;;;;;4962576;28;20221;-63
2023/04/04 05:28:19;;;;;;;6.93;3.50;;;;;;;;;;4955856;28;20233;-65
2023/04/04 05:30:45;;;;;;;6.20;3.07;;;;;;;;;;4948373;28;20818;-64
2023/04/04 05:33:10;;;;;;;7.37;3.20;;;;;;;;;;4950628;29;20990;-64
2023/04/04 05:35:35;;;;;;;5.93;3.30;;;;;;;;;;4950370;28;20241;-64
2023/04/04 05:38:01;;;;;;;8.03;3.20;;;;;;;;;;4955470;28;20211;-63
2023/04/04 05:40:27;;;;;;;8.70;3.20;;;;;;;;;;4965514;28;20225;-64
2023/04/04 05:42:54;;;;;;;6.93;3.10;;;;;;;;;;4962316;28;20218;-64
2023/04/04 05:45:19;;;;;;;8.80;3.20;;;;;;;;;;4970138;28;20248;-64
2023/04/04 05:47:44;;;;;;;6.00;2.80;;;;;;;;;;4963151;28;20291;-64
2023/04/04 05:50:10;;;;;;;6.37;3.17;;;;;;;;;;4963834;28;20234;-64
2023/04/04 05:52:35;;;;;;;8.60;3.17;;;;;;;;;;4956599;28;20218;-64
2023/04/04 05:55:01;;;;;;;5.97;3.20;;;;;;;;;;4954228;28;20634;-63
2023/04/04 05:57:26;;;;;;;5.97;3.30;;;;;;;;;;4954893;28;20222;-64
2023/04/04 05:59:51;;;;;;;6.27;3.10;;;;;;;;;;4956283;28;20222;-64
2023/04/04 06:02:17;;;;;;;4.60;2.80;;;;;;;;;;4953446;29;20222;-64
2023/04/04 06:04:44;;;;;;;6.63;3.03;;;;;;;;;;4954068;29;20225;-64
2023/04/04 06:07:09;;;;;;;8.10;3.07;;;;;;;;;;4953742;29;20230;-64
2023/04/04 06:09:35;;;;;;;7.50;3.28;;;;;;;;;;4936849;29;20631;-65
2023/04/04 06:12:00;;;;;;;6.82;2.78;;;;;;;;;;4953558;29;20210;-64
2023/04/04 06:14:25;;;;;;;5.72;2.92;;;;;;;;;;4954113;29;20219;-64
2023/04/04 06:16:51;;;;;;;7.20;3.00;;;;;;;;;;4953582;29;20613;-65
2023/04/04 06:19:16;;;;;;;5.38;2.67;;;;;;;;;;4936012;29;20222;-64
2023/04/04 06:21:41;;;;;;;4.78;3.00;;;;;;;;;;4953970;29;20757;-64
2023/04/04 06:24:07;;;;;;;6.57;3.30;;;;;;;;;;4953326;29;20219;-64
2023/04/04 06:26:32;;;;;;;8.75;2.97;;;;;;;;;;4953559;29;20788;-65
2023/04/04 06:28:57;;;;;;;7.00;3.35;;;;;;;;;;4954097;29;20238;-65
2023/04/04 06:31:23;;;;;;;7.13;3.00;;;;;;;;;;4952278;28;20219;-65
2023/04/04 06:33:48;;;;;;;6.05;3.20;;;;;;;;;;4954097;28;20298;-65
2023/04/04 06:36:13;;;;;;;6.90;3.03;;;;;;;;;;4953398;28;20293;-65
2023/04/04 06:38:38;;;;;;;6.20;3.10;;;;;;;;;;4953180;28;20547;-65
2023/04/04 06:41:04;;;;;;;7.70;3.40;;;;;;;;;;4953248;28;20226;-65
2023/04/04 06:43:29;;;;;;;7.95;3.60;;;;;;;;;;4953769;28;20218;-65
2023/04/04 06:45:54;;;;;;;6.93;3.20;;;;;;;;;;4952863;28;20222;-65
2023/04/04 06:48:20;;;;;;;5.97;2.92;;;;;;;;;;4953889;28;20266;-65
2023/04/04 06:50:46;;;;;;;6.00;3.13;;;;;;;;;;4971912;28;20728;-65
2023/04/04 06:53:12;;;;;;;6.82;3.58;;;;;;;;;;4972016;28;20316;-63
2023/04/04 06:55:37;;;;;;;6.15;3.53;;;;;;;;;;4972963;28;20218;-64
2023/04/04 06:58:02;;;;;;;6.22;3.42;;;;;;;;;;4966776;28;20207;-64
2023/04/04 07:00:27;;;;;;;7.18;3.20;;;;;;;;;;4962521;28;20277;-64
2023/04/04 07:02:58;;;;;;;8.05;3.40;;;;;;;;;;4969990;28;20633;-64
2023/04/04 07:05:23;;;;;;;8.68;3.53;;;;;;;;;;4954977;28;20217;-64
2023/04/04 07:07:51;;;;;;;6.55;3.95;;;;;;;;;;4972200;28;20264;-64
2023/04/04 07:10:16;;;;;;;6.68;3.30;;;;;;;;;;4972127;28;20225;-64
2023/04/04 07:12:42;;;;;;;6.47;3.10;;;;;;;;;;4972477;28;20565;-64
2023/04/04 07:15:07;;;;;;;5.68;3.40;;;;;;;;;;4971428;28;20214;-64
2023/04/04 07:17:36;;;;;;;10.38;3.40;;;;;;;;;;4959398;28;20678;-64
2023/04/04 07:20:01;;;;;;;8.45;3.38;;;;;;;;;;4952633;29;20214;-63
2023/04/04 07:22:27;;;;;;;5.70;2.67;;;;;;;;;;4950876;28;20218;-64
2023/04/04 07:24:53;;;;;;;5.43;2.70;;;;;;;;;;4953084;29;20577;-64
2023/04/04 07:27:18;;;;;;;5.68;3.05;;;;;;;;;;4952171;29;20219;-64
2023/04/04 07:29:44;;;;;;;5.15;2.90;;;;;;;;;;4952382;29;20237;-64
2023/04/04 07:32:09;;;;;;;10.82;4.03;;;;;;;;;;4952351;28;20305;-63
2023/04/04 07:34:34;;;;;;;8.32;3.50;;;;;;;;;;4952885;28;20213;-65
2023/04/04 07:36:59;;;;;;;6.85;3.20;;;;;;;;;;4952510;28;20654;-65
2023/04/04 07:39:25;;;;;;;9.05;3.40;;;;;;;;;;4952471;28;20693;-66
2023/04/04 07:41:50;;;;;;;8.85;4.30;;;;;;;;;;4952011;28;20223;-66
2023/04/04 07:44:16;;;;;;;7.93;3.30;;;;;;;;;;4952223;28;20601;-66
2023/04/04 07:46:41;;;;;;;7.55;3.30;;;;;;;;;;4952418;28;20280;-67
2023/04/04 07:49:06;;;;;;;7.68;3.40;;;;;;;;;;4958398;28;20214;-66
2023/04/04 07:51:34;;;;;;;7.30;3.38;;;;;;;;;;4971996;28;20221;-66
2023/04/04 07:54:00;;;;;;;7.78;3.50;;;;;;;;;;4971618;28;20860;-67
2023/04/04 07:56:25;;;;;;;7.00;2.90;;;;;;;;;;4970656;28;20206;-66
2023/04/04 07:58:51;;;;;;;6.07;3.00;;;;;;;;;;4959736;28;20229;-67
2023/04/04 08:01:16;;;;;;;5.45;2.42;;;;;;;;;;4951510;28;20582;-66
2023/04/04 08:03:42;;;;;;;7.82;3.45;;;;;;;;;;4952159;28;20309;-65
2023/04/04 08:06:07;;;;;;;6.10;2.83;;;;;;;;;;4951963;28;20250;-66
2023/04/04 08:08:32;;;;;;;6.53;3.22;;;;;;;;;;4951989;28;20265;-66
2023/04/04 08:10:57;;;;;;;5.00;2.88;;;;;;;;;;4951711;28;20218;-66
2023/04/04 08:13:23;;;;;;;7.03;2.97;;;;;;;;;;4951712;28;20238;-67
2023/04/04 08:15:48;;;;;;;35.38;15.05;;;;;;;;;;4951692;28;20288;-66
2023/04/04 08:18:14;;;;;;;6.28;3.10;;;;;;;;;;4951079;28;20215;-67
2023/04/04 08:20:39;;;;;;;6.75;3.47;;;;;;;;;;4952251;28;20250;-66
2023/04/04 08:23:04;;;;;;;7.55;4.90;;;;;;;;;;4951471;28;20218;-66
2023/04/04 08:25:30;;;;;;;8.05;3.55;;;;;;;;;;4951494;28;20214;-67
2023/04/04 08:27:55;;;;;;;7.32;3.10;;;;;;;;;;4951844;28;20223;-67
2023/04/04 08:30:20;;;;;;;8.38;3.45;;;;;;;;;;4950717;28;20214;-68
2023/04/04 08:32:46;;;;;;;5.68;3.50;;;;;;;;;;4951196;29;20242;-70
2023/04/04 08:35:11;;;;;;;8.48;2.72;;;;;;;;;;4951430;29;20868;-67
2023/04/04 08:37:37;;;;;;;6.63;3.20;;;;;;;;;;4951775;29;20641;-67
2023/04/04 08:40:03;;;;;;;80.50;61.45;;;;;;;;;;4950881;29;20222;-66
2023/04/04 08:42:29;;;;;;;43.78;32.08;;;;;;;;;;4951631;29;20274;-67
2023/04/04 08:44:55;;;;;;;7.05;3.40;;;;;;;;;;4951198;29;20214;-67
2023/04/04 08:47:20;;;;;;;6.22;3.05;;;;;;;;;;4940074;28;20241;-67
2023/04/04 08:49:45;;;;;;;6.72;2.80;;;;;;;;;;4941364;29;20693;-68
2023/04/04 08:52:11;;;;;;;5.95;3.00;;;;;;;;;;4933212;29;20225;-67
2023/04/04 08:54:36;;;;;;;6.13;3.03;;;;;;;;;;4951798;29;20211;-67
2023/04/04 08:57:02;;;;;;;6.00;2.70;;;;;;;;;;4953147;28;20213;-66
2023/04/04 08:59:28;;;;;;;4.80;2.60;;;;;;;;;;4958686;28;20214;-67
2023/04/04 09:02:00;;;;;;;4.63;2.53;;;;;;;;;;4966023;28;20308;-67
2023/04/04 09:04:26;;;;;;;5.78;2.55;;;;;;;;;;4953130;28;20206;-66
2023/04/04 09:06:51;;;;;;;7.20;2.40;;;;;;;;;;4953027;28;20236;-67
2023/04/04 09:09:16;;;;;;;8.38;3.30;;;;;;;;;;4953055;28;20625;-67
2023/04/04 09:11:42;;;;;;;7.57;2.55;;;;;;;;;;4953105;28;20237;-67
2023/04/04 09:14:07;;;;;;;5.50;2.80;;;;;;;;;;4975421;28;20735;-66
2023/04/04 09:16:32;;;;;;;5.82;2.22;;;;;;;;;;4976951;28;20215;-67
2023/04/04 09:18:57;;;;;;;5.15;2.30;;;;;;;;;;4977024;28;20209;-67
2023/04/04 09:21:23;;;;;;;5.65;3.20;;;;;;;;;;4972947;28;20214;-65
2023/04/04 09:23:56;;;;;;;5.90;2.40;;;;;;;;;;4962823;28;20229;-69
2023/04/04 09:26:21;;;;;;;4.38;1.90;;;;;;;;;;4957044;28;20206;-68
2023/04/04 09:28:51;;;;;;;4.65;2.20;;;;;;;;;;4956105;28;20272;-69
2023/04/04 09:31:16;;;;;;;8.23;2.38;;;;;;;;;;4957001;29;20242;-68
2023/04/04 09:33:41;;;;;;;5.38;2.40;;;;;;;;;;4940189;29;20218;-69
2023/04/04 09:36:09;;;;;;;5.35;2.13;;;;;;;;;;4939529;29;20210;-68
2023/04/04 09:38:35;;;;;;;8.57;2.65;;;;;;;;;;4957578;28;20569;-68
2023/04/04 09:41:00;;;;;;;6.55;2.30;;;;;;;;;;4956960;29;20226;-67
2023/04/04 09:43:29;;;;;;;5.57;2.10;;;;;;;;;;4956718;28;20230;-68
2023/04/04 09:45:54;;;;;;;5.97;2.88;;;;;;;;;;4940451;29;20733;-68
2023/04/04 09:48:27;;;;;;;7.50;2.80;;;;;;;;;;4970064;28;20233;-68
2023/04/04 09:50:52;;;;;;;6.10;2.35;;;;;;;;;;4957429;29;20225;-69
2023/04/04 09:53:18;;;;;;;8.07;2.80;;;;;;;;;;4956795;28;20218;-68
2023/04/04 09:55:48;;;;;;;7.38;2.80;;;;;;;;;;4956927;29;20690;-68
2023/04/04 09:58:14;;;;;;;6.28;2.70;;;;;;;;;;4939380;29;20800;-68
2023/04/04 10:00:43;;;;;;;7.97;3.03;;;;;;;;;;4956740;29;20219;-68
2023/04/04 10:03:09;;;;;;;6.90;2.72;;;;;;;;;;4956345;28;20297;-67
2023/04/04 10:05:35;;;;;;;5.53;3.00;;;;;;;;;;4957701;29;20298;-68
2023/04/04 10:08:07;;;;;;;6.85;2.75;;;;;;;;;;4956942;29;20614;-68
2023/04/04 10:10:33;;;;;;;6.53;2.72;;;;;;;;;;4939116;29;20257;-66
2023/04/04 10:12:58;;;;;;;6.15;2.63;;;;;;;;;;4939939;29;20226;-65
2023/04/04 10:15:23;;;;;;;7.95;2.90;;;;;;;;;;4938828;29;20673;-65
2023/04/04 10:17:48;;;;;;;6.47;2.75;;;;;;;;;;4956765;28;20265;-65
2023/04/04 10:20:14;;;;;;;7.25;2.40;;;;;;;;;;4939620;29;20264;-65
2023/04/04 10:22:39;;;;;;;5.07;2.80;;;;;;;;;;4941772;28;20297;-65
2023/04/04 10:25:05;;;;;;;7.53;3.67;;;;;;;;;;4954689;28;20268;-64
2023/04/04 10:27:31;;;;;;;6.50;2.95;;;;;;;;;;4973551;28;20229;-65
2023/04/04 10:29:56;;;;;;;6.55;3.13;;;;;;;;;;4967983;28;20619;-65
2023/04/04 10:32:24;;;;;;;8.30;2.75;;;;;;;;;;4952928;29;20310;-68
2023/04/04 10:35:00;;;;;;;7.07;2.88;;;;;;;;;;4937098;29;20226;-66
2023/04/04 10:37:26;;;;;;;6.32;2.63;;;;;;;;;;4953460;29;20210;-65
2023/04/04 10:39:52;;;;;;;6.18;2.80;;;;;;;;;;4953478;29;20210;-66
2023/04/04 10:42:17;;;;;;;7.38;3.10;;;;;;;;;;4952064;29;20428;-65
2023/04/04 10:44:43;;;;;;;6.25;2.85;;;;;;;;;;4952972;29;20210;-65
2023/04/04 10:47:13;;;;;;;5.57;2.75;;;;;;;;;;4958317;28;20244;-65
2023/04/04 10:49:38;;;;;;;6.32;2.70;;;;;;;;;;4944500;29;20250;-67
2023/04/04 10:52:04;;;;;;;6.93;2.80;;;;;;;;;;4935538;29;20211;-66
2023/04/04 10:54:29;;;;;;;6.57;2.90;;;;;;;;;;4953958;29;20686;-65
2023/04/04 10:56:59;;;;;;;7.28;2.75;;;;;;;;;;4953523;29;20714;-65
2023/04/04 10:59:25;;;;;;;6.85;2.97;;;;;;;;;;4935500;29;20218;-66
2023/04/04 11:01:56;;;;;;;6.97;3.08;;;;;;;;;;4951412;28;20206;-65
2023/04/04 11:04:27;;;;;;;7.82;2.92;;;;;;;;;;4953256;28;20277;-66
2023/04/04 11:07:04;;;;;;;8.05;3.05;;;;;;;;;;4971939;28;20214;-65
2023/04/04 11:09:44;;;;;;;5.05;2.92;;;;;;;;;;4972523;28;20666;-65
2023/04/04 11:12:10;;;;;;;7.43;3.47;;;;;;;;;;4953845;28;20215;-65
2023/04/04 11:14:36;;;;;;;7.55;3.00;;;;;;;;;;4935017;29;20313;-65
2023/04/04 11:17:04;;;;;;;7.60;3.00;;;;;;;;;;4951567;28;20322;-65
2023/04/04 11:19:30;;;;;;;5.15;2.65;;;;;;;;;;4952591;28;20228;-65
2023/04/04 11:21:56;;;;;;;7.53;3.22;;;;;;;;;;4952750;29;20222;-66
2023/04/04 11:24:22;;;;;;;7.43;3.00;;;;;;;;;;4935370;29;20754;-66
2023/04/04 11:26:47;;;;;;;6.78;3.30;;;;;;;;;;4952678;29;20619;-67
2023/04/04 11:29:18;;;;;;;7.25;3.00;;;;;;;;;;4952024;29;20272;-66
2023/04/04 11:31:44;;;;;;;8.05;3.08;;;;;;;;;;4971296;28;20233;-66
2023/04/04 11:34:11;;;;;;;6.65;2.92;;;;;;;;;;4971255;28;20222;-66
2023/04/04 11:36:36;;;;;;;7.20;3.17;;;;;;;;;;4971892;28;20264;-66
2023/04/04 11:39:04;;;;;;;7.70;2.85;;;;;;;;;;4971615;28;20690;-66
2023/04/04 11:41:56;;;;;;;8.27;2.65;;;;;;;;;;4954360;28;20225;-65
2023/04/04 11:44:22;;;;;;;8.18;3.03;;;;;;;;;;4971148;28;20225;-66
2023/04/04 11:46:48;;;;;;;5.80;2.88;;;;;;;;;;4968813;28;20686;-65
2023/04/04 11:49:13;;;;;;;5.00;2.67;;;;;;;;;;4959468;28;20297;-65
2023/04/04 11:51:39;;;;;;;7.35;2.95;;;;;;;;;;4971848;28;20213;-64
2023/04/04 11:54:07;;;;;;;6.43;2.60;;;;;;;;;;4971293;28;20348;-64
2023/04/04 11:56:33;;;;;;;5.90;2.70;;;;;;;;;;4970717;28;20683;-64
2023/04/04 11:58:59;;;;;;;8.88;2.80;;;;;;;;;;4947981;28;20265;-64
2023/04/04 12:01:24;;;;;;;7.13;3.00;;;;;;;;;;4960025;28;20214;-64
2023/04/04 12:03:50;;;;;;;6.88;3.35;;;;;;;;;;4951831;29;20218;-64
2023/04/04 12:06:15;;;;;;;9.20;2.88;;;;;;;;;;4951806;29;20236;-64
2023/04/04 12:08:41;;;;;;;5.95;2.70;;;;;;;;;;4935385;29;20226;-64
2023/04/04 12:11:09;;;;;;;5.70;2.40;;;;;;;;;;4951205;29;20301;-64
2023/04/04 12:13:34;;;;;;;5.38;2.70;;;;;;;;;;4951683;29;20313;-64
2023/04/04 12:15:59;;;;;;;5.63;2.50;;;;;;;;;;4934467;29;20290;-65
2023/04/04 12:18:25;;;;;;;4.65;2.38;;;;;;;;;;4951495;29;20597;-65
2023/04/04 12:20:50;;;;;;;9.40;2.95;;;;;;;;;;4951941;29;20241;-65
2023/04/04 12:23:16;;;;;;;5.72;2.83;;;;;;;;;;4951162;29;20206;-65
2023/04/04 12:25:43;;;;;;;7.53;2.90;;;;;;;;;;4950445;28;20760;-65
2023/04/04 12:28:09;;;;;;;7.40;3.00;;;;;;;;;;4950918;29;20308;-65
2023/04/04 12:30:35;;;;;;;7.13;2.88;;;;;;;;;;4951159;29;20605;-65
2023/04/04 12:33:00;;;;;;;5.30;2.67;;;;;;;;;;4951268;29;20257;-64
2023/04/04 12:35:25;;;;;;;9.75;3.80;;;;;;;;;;4951779;29;20570;-65
2023/04/04 12:38:00;;;;;;;7.25;2.92;;;;;;;;;;4951489;29;20607;-64
2023/04/04 12:40:30;;;;;;;8.32;3.53;;;;;;;;;;4951423;29;20217;-64
2023/04/04 12:42:56;;;;;;;6.07;2.80;;;;;;;;;;4951266;29;20218;-64
2023/04/04 12:45:22;;;;;;;6.53;2.58;;;;;;;;;;4950896;29;20575;-64
2023/04/04 12:47:51;;;;;;;5.50;2.40;;;;;;;;;;4943584;28;20229;-64
2023/04/04 12:50:21;;;;;;;5.97;2.58;;;;;;;;;;4953945;28;20219;-64
2023/04/04 12:52:50;;;;;;;6.93;2.75;;;;;;;;;;4948948;28;20760;-64
2023/04/04 12:55:15;;;;;;;6.30;2.60;;;;;;;;;;4934273;29;20313;-64
2023/04/04 12:57:40;;;;;;;5.35;2.58;;;;;;;;;;4936315;28;20262;-64
2023/04/04 13:00:07;;;;;;;7.50;2.70;;;;;;;;;;4954051;28;20223;-64
2023/04/04 13:02:33;;;;;;;6.20;2.55;;;;;;;;;;4951062;29;20223;-64
2023/04/04 13:04:59;;;;;;;4.35;2.53;;;;;;;;;;4951495;29;20245;-64
2023/04/04 13:07:28;;;;;;;5.63;3.05;;;;;;;;;;4950283;29;20674;-64
2023/04/04 13:09:54;;;;;;;7.28;2.75;;;;;;;;;;4951306;29;20229;-64
2023/04/04 13:12:19;;;;;;;5.53;3.13;;;;;;;;;;4932943;29;20214;-65
2023/04/04 13:14:57;;;;;;;6.97;2.95;;;;;;;;;;4951521;29;20240;-64
2023/04/04 13:17:23;;;;;;;6.20;2.90;;;;;;;;;;4950765;29;20206;-64
2023/04/04 13:19:48;;;;;;;9.05;3.20;;;;;;;;;;4933722;29;20284;-64
2023/04/04 13:22:14;;;;;;;5.30;2.90;;;;;;;;;;4950583;29;20211;-64
2023/04/04 13:24:39;;;;;;;6.93;2.88;;;;;;;;;;4951267;29;20218;-65
2023/04/04 13:27:05;;;;;;;6.63;3.40;;;;;;;;;;4950222;29;20469;-65
2023/04/04 13:29:31;;;;;;;7.10;2.80;;;;;;;;;;4952430;28;20221;-65
2023/04/04 13:31:56;;;;;;;8.43;3.13;;;;;;;;;;4969947;28;20233;-65
2023/04/04 13:34:22;;;;;;;6.63;2.92;;;;;;;;;;4969489;28;20889;-65
2023/04/04 13:36:48;;;;;;;5.68;2.90;;;;;;;;;;4970525;28;20228;-65
2023/04/04 13:39:13;;;;;;;7.75;3.10;;;;;;;;;;4967873;28;20589;-64
2023/04/04 13:41:39;;;;;;;5.70;2.97;;;;;;;;;;4970035;28;20217;-64
2023/04/04 13:44:04;;;;;;;7.78;2.90;;;;;;;;;;4967612;28;20583;-65
2023/04/04 13:46:29;;;;;;;6.47;3.33;;;;;;;;;;4970049;28;20221;-65
2023/04/04 13:48:55;;;;;;;7.35;2.85;;;;;;;;;;4946782;28;20214;-65
2023/04/04 13:51:20;;;;;;;7.15;3.13;;;;;;;;;;4950268;29;20215;-65
2023/04/04 13:53:45;;;;;;;5.47;2.65;;;;;;;;;;4950982;29;20222;-65
2023/04/04 13:56:10;;;;;;;6.70;2.83;;;;;;;;;;4953459;28;20408;-65
2023/04/04 13:58:36;;;;;;;7.03;2.95;;;;;;;;;;4950347;28;20709;-65
2023/04/04 14:01:05;;;;;;;5.40;2.92;;;;;;;;;;4955997;28;20228;-65
2023/04/04 14:03:30;;;;;;;5.82;2.70;;;;;;;;;;4960431;28;20214;-65
2023/04/04 14:05:56;;;;;;;7.47;2.75;;;;;;;;;;4965120;28;20688;-65
2023/04/04 14:08:21;;;;;;;6.88;2.60;;;;;;;;;;4950202;28;20229;-65
2023/04/04 14:10:46;;;;;;;5.72;2.75;;;;;;;;;;4967134;28;20252;-65
2023/04/04 14:13:11;;;;;;;6.28;2.88;;;;;;;;;;4949363;28;20926;-65
2023/04/04 14:15:38;;;;;;;6.35;2.85;;;;;;;;;;4966786;28;20220;-65
2023/04/04 14:18:03;;;;;;;6.03;2.95;;;;;;;;;;4967153;28;20220;-65
2023/04/04 14:20:29;;;;;;;7.47;3.20;;;;;;;;;;4963424;28;20213;-65
2023/04/04 14:22:54;;;;;;;8.00;2.67;;;;;;;;;;4959593;28;20226;-65
2023/04/04 14:25:19;;;;;;;5.57;2.50;;;;;;;;;;4960200;28;22449;-65
2023/04/04 14:27:45;;;;;;;5.80;2.80;;;;;;;;;;4962480;28;20689;-65
2023/04/04 14:30:10;;;;;;;6.75;3.22;;;;;;;;;;4960418;28;20202;-65
2023/04/04 14:32:35;;;;;;;5.40;2.63;;;;;;;;;;4959407;28;20832;-65
2023/04/04 14:35:01;;;;;;;6.70;2.95;;;;;;;;;;4966284;28;20907;-65